Airfield :
LOGIN :

Register | Disclaimer

   EN    FR    IT 

 










Legend :    VFR   Marginal VFR   IFR   Intensive IFR   Very Intensive IFR
Visi :
Ceiling :
>= 8 km
>= 3000ft
5 to 8 km
1000 to 3000 ft
1500m to 5 km
500 to 1000 ft
800 to 1500m
200 to 500 ft
< 800m
< 200 ft
Symbols :   Thunderstorms  Fog  Heavy snow  Heavy precipitations  Wind > 20 kt
SIGMETs :     Misc.  Thunderstorms  Icing  Turbulence  Mountain Waves  Volcanic Ashes






- Airport Elevation : 204 ft
- IATA code : AGF


LFBA - Agen

CURRENT METAR :
  • 252000Z AUTO 00000KT CAVOK 12/09 Q1016 NOSIG

EXPIRED METARs :
  • 251930Z AUTO 00000KT CAVOK 12/09 Q1016 NOSIG
  • 251900Z AUTO 22002KT CAVOK 14/09 Q1016 NOSIG
  • 251830Z AUTO VRB02KT CAVOK 15/10 Q1015 NOSIG
  • 251800Z AUTO 07003KT 9999 2000 NSC 16/09 Q1015 NOSIG
  • 251730Z AUTO 03003KT CAVOK 18/09 Q1015 NOSIG

TAF TAF LFBA
Valid from the 25 at 15:00 until the 26 at 00:00 UTC


251400Z 2515/2524 34006KT CAVOK
BECMG 2517/2519 VRB02KT



MET'MAP, your aeronautical weather chart ! - Copyright ORBIFLY December 2007 - Disclaimer

ORBIFLY MET'MAP TEAM :

Programming & Development : Alexandra Zaïnal
Original concept : Baudouin d'Aumeries
Technical & hardware support : Manuel Goepfert
Assistance : Marc-Olivier Méhu




SOURCES & CREDITS :

   NOAA